Abbotsford Airport
CYXX : now visible

Airfield :











YOU CAN JOIN US ON...

 
LOGIN :

Register | Disclaimer

   EN    FR    IT 

 









Legend :    VFR   Marginal VFR   IFR   Intensive IFR   Very Intensive IFR
Visi :
Ceiling :
>= 8 km
>= 3000ft
5 to 8 km
1000 to 3000 ft
1500m to 5 km
500 to 1000 ft
800 to 1500m
200 to 500 ft
< 800m
< 200 ft
Symbols :   Thunderstorms  Fog  Heavy snow  Heavy precipitations  Wind > 20 kt







- Airport Elevation : 195 ft
- IATA code : YXX


CYXX - Abbotsford

CURRENT METAR :
  • 201600Z 20002KT 2 1/2SM -DZ BR OVC006 14/13 A3008 RMK ST8 SLP188

EXPIRED METARs :
  • 201545Z 20002KT 2 1/2SM BR OVC008 14/13 A3008 RMK ST8 SLP187
  • 201500Z 24003KT 1 1/2SM -RA BR OVC004 13/13 A3007 RMK ST8 SLP185

TAF AMD TAF CYXX
Valid from the 20 at 15:00 until the 21 at 12:00 UTC


201514Z 2015/2112 VRB03KT 11/2SM -RA BR BKN004 OVC006
TEMPO 2015/2018 6SM BR SCT004 OVC010
FM201800 20005KT 5SM -RA BR BKN008 BKN015
TEMPO 2018/2021 P6SM NSW SCT008 BKN025
FM202100 22008KT P6SM SCT020 BKN040
TEMPO 2021/2112 BKN020
BECMG 2103/2105 VRB03KT RMK NXT FCST BY 201800Z
No reported NOTAMs for that airfield.



MET'MAP, your aeronautical weather chart ! - Copyright ORBIFLY December 2007 - Disclaimer

ORBIFLY MET'MAP TEAM :

Programming & Development : Alexandra Zaïnal
Concept & Development : Baudouin d'Aumeries
Co-Development & Prog : Marc-Olivier Méhu
Technical & hardware support : Manuel Goepfert

Contact : metmap@orbifly.com




SOURCES & CREDITS :

   NOAA       Earth
Advisory